createdAt,value
2017-08-22T00:01:33.823Z,4.10
2017-08-22T00:04:02.177Z,4.13
2017-08-22T00:06:32.317Z,4.07
2017-08-22T00:09:01.928Z,3.47
2017-08-22T00:11:30.289Z,3.93
2017-08-22T00:13:59.403Z,4.80
2017-08-22T00:16:28.832Z,4.90
2017-08-22T00:18:57.649Z,4.07
2017-08-22T00:21:25.999Z,3.27
2017-08-22T00:23:54.866Z,4.20
2017-08-22T00:26:23.193Z,4.13
2017-08-22T00:28:51.577Z,3.93
2017-08-22T00:31:20.374Z,4.20
2017-08-22T00:33:48.732Z,4.87
2017-08-22T00:36:17.986Z,4.00
2017-08-22T00:38:47.385Z,4.43
2017-08-22T00:41:15.740Z,3.93
2017-08-22T00:43:44.091Z,4.33
2017-08-22T00:46:12.706Z,4.40
2017-08-22T00:48:41.121Z,4.03
2017-08-22T00:51:09.568Z,4.67
2017-08-22T00:56:18.068Z,4.37
2017-08-22T00:58:46.458Z,5.13
2017-08-22T01:01:15.244Z,4.47
2017-08-22T01:03:43.643Z,4.00
2017-08-22T01:06:12.205Z,4.70
2017-08-22T01:08:40.842Z,5.10
2017-08-22T01:11:09.251Z,4.60
2017-08-22T01:13:37.913Z,4.30
2017-08-22T01:16:08.142Z,4.53
2017-08-22T01:18:36.513Z,4.57
2017-08-22T01:21:05.670Z,4.60
2017-08-22T01:23:34.328Z,4.33
2017-08-22T01:26:02.706Z,4.70
2017-08-22T01:28:31.102Z,4.60
2017-08-22T01:31:00.037Z,4.20
2017-08-22T01:33:28.468Z,4.27
2017-08-22T01:35:56.851Z,4.30
2017-08-22T01:38:25.730Z,4.80
2017-08-22T01:40:54.122Z,4.73
2017-08-22T01:43:22.531Z,5.40
2017-08-22T01:45:51.397Z,4.03
2017-08-22T01:48:19.768Z,5.17
2017-08-22T01:53:22.175Z,3.83
2017-08-22T01:55:50.568Z,4.10
2017-08-22T01:58:18.951Z,4.50
2017-08-22T02:00:47.853Z,4.60
2017-08-22T02:03:17.008Z,5.40
2017-08-22T02:05:45.428Z,4.40
2017-08-22T02:08:14.107Z,5.27
2017-08-22T02:10:42.506Z,4.10
2017-08-22T02:13:11.630Z,5.00
2017-08-22T02:15:40.319Z,4.93
2017-08-22T02:18:08.842Z,5.30
2017-08-22T02:20:37.244Z,4.93
2017-08-22T02:23:07.200Z,5.10
2017-08-22T02:25:36.361Z,4.30
2017-08-22T02:28:04.726Z,4.60
2017-08-22T02:30:33.389Z,4.90
2017-08-22T02:33:01.740Z,4.73
2017-08-22T02:35:30.138Z,4.63
2017-08-22T02:37:58.862Z,4.50
2017-08-22T02:40:27.242Z,3.93
2017-08-22T02:42:55.783Z,4.00
2017-08-22T02:45:24.668Z,3.83
2017-08-22T02:47:53.060Z,4.20
2017-08-22T02:50:21.475Z,3.90
2017-08-22T02:52:50.870Z,3.90
2017-08-22T02:55:19.319Z,4.47
2017-08-22T02:57:47.700Z,3.50
2017-08-22T03:00:16.453Z,5.10
2017-08-22T03:02:44.817Z,4.80
2017-08-22T03:05:13.202Z,5.00
2017-08-22T03:07:42.162Z,4.40
2017-08-22T03:10:10.553Z,5.07
2017-08-22T03:12:38.922Z,4.60
2017-08-22T03:15:07.881Z,4.40
2017-08-22T03:17:37.121Z,4.60
2017-08-22T03:20:05.491Z,4.67
2017-08-22T03:22:34.293Z,4.23
2017-08-22T03:25:02.737Z,4.77
2017-08-22T03:27:31.260Z,4.90
2017-08-22T03:30:00.062Z,4.47
2017-08-22T03:32:28.435Z,4.70
2017-08-22T03:34:56.854Z,5.00
2017-08-22T03:37:25.680Z,4.70
2017-08-22T03:39:54.175Z,4.73
2017-08-22T03:42:22.637Z,4.53
2017-08-22T03:44:51.411Z,5.00
2017-08-22T03:47:19.805Z,5.00
2017-08-22T03:49:48.219Z,5.37
2017-08-22T03:52:17.308Z,4.80
2017-08-22T03:54:46.605Z,4.20
2017-08-22T03:57:15.869Z,4.47
2017-08-22T03:59:45.103Z,4.23
2017-08-22T04:02:13.463Z,5.07
2017-08-22T04:04:41.813Z,4.80
2017-08-22T04:07:10.896Z,4.93
2017-08-22T04:09:39.278Z,4.90
2017-08-22T04:12:07.621Z,4.60
2017-08-22T04:14:36.749Z,4.50
2017-08-22T04:17:05.192Z,4.90
2017-08-22T04:19:33.604Z,5.33
2017-08-22T04:22:02.272Z,4.27
2017-08-22T04:24:30.644Z,5.07
2017-08-22T04:26:59.030Z,4.50
2017-08-22T04:29:27.805Z,4.70
2017-08-22T04:31:56.207Z,5.00
2017-08-22T04:34:24.584Z,4.60
2017-08-22T04:36:54.093Z,5.10
2017-08-22T04:39:22.523Z,5.10
2017-08-22T04:41:51.358Z,5.60
2017-08-22T04:44:20.143Z,5.40
2017-08-22T04:46:48.500Z,6.43
2017-08-22T04:49:16.893Z,5.37
2017-08-22T04:51:45.692Z,5.60
2017-08-22T04:54:14.071Z,5.80
2017-08-22T04:56:43.365Z,5.37
2017-08-22T04:59:13.374Z,5.50
2017-08-22T05:01:42.440Z,6.20
2017-08-22T05:04:10.792Z,6.57
2017-08-22T05:06:39.448Z,5.50
2017-08-22T05:09:07.817Z,5.13
2017-08-22T05:11:36.167Z,5.93
2017-08-22T05:14:04.921Z,5.50
2017-08-22T05:16:33.279Z,5.60
2017-08-22T05:19:02.423Z,6.10
2017-08-22T05:21:31.895Z,5.50
2017-08-22T05:24:00.282Z,5.70
2017-08-22T05:26:28.662Z,5.10
2017-08-22T05:28:57.446Z,5.63
2017-08-22T05:31:25.860Z,5.03
2017-08-22T05:33:54.630Z,5.20
2017-08-22T05:36:23.380Z,5.10
2017-08-22T05:38:52.546Z,4.90
2017-08-22T05:41:20.889Z,5.90
2017-08-22T05:43:49.896Z,5.83
2017-08-22T05:46:18.329Z,5.40
2017-08-22T05:48:46.714Z,6.27
2017-08-22T05:51:15.413Z,5.60
2017-08-22T05:53:43.744Z,6.10
2017-08-22T05:56:12.081Z,6.10
2017-08-22T05:58:41.679Z,5.97
2017-08-22T06:01:10.224Z,6.20
2017-08-22T06:03:38.613Z,5.70
2017-08-22T06:06:08.367Z,5.83
2017-08-22T06:08:36.717Z,6.10
2017-08-22T06:11:05.089Z,6.00
2017-08-22T06:13:33.716Z,5.93
2017-08-22T06:16:02.106Z,6.30
2017-08-22T06:18:30.468Z,5.03
2017-08-22T06:20:59.661Z,5.27
2017-08-22T06:23:28.093Z,5.47
2017-08-22T06:25:56.451Z,4.87
2017-08-22T06:28:25.583Z,5.00
2017-08-22T06:30:53.995Z,5.90
2017-08-22T06:33:23.010Z,4.73
2017-08-22T06:35:51.675Z,4.63
2017-08-22T06:38:20.021Z,5.10
2017-08-22T06:40:48.590Z,4.50
2017-08-22T06:43:17.250Z,4.70
2017-08-22T06:45:45.658Z,4.30
2017-08-22T06:48:14.013Z,4.83
2017-08-22T06:50:42.859Z,5.10
2017-08-22T06:53:11.199Z,4.40
2017-08-22T06:55:39.542Z,3.60
2017-08-22T06:58:08.324Z,4.60
2017-08-22T07:00:36.675Z,4.20
2017-08-22T07:03:05.034Z,3.83
2017-08-22T07:05:33.768Z,3.77
2017-08-22T07:08:02.121Z,4.10
2017-08-22T07:10:31.291Z,3.50
2017-08-22T07:13:00.160Z,3.37
2017-08-22T07:15:28.566Z,3.30
2017-08-22T07:17:56.968Z,3.60
2017-08-22T07:20:25.884Z,3.30
2017-08-22T07:22:54.261Z,2.73
2017-08-22T07:25:22.590Z,2.93
2017-08-22T07:27:52.128Z,4.07
2017-08-22T07:30:21.251Z,2.60
2017-08-22T07:32:49.589Z,2.80
2017-08-22T07:35:18.278Z,2.60
2017-08-22T07:37:46.619Z,3.30
2017-08-22T07:40:14.981Z,2.53
2017-08-22T07:42:43.856Z,2.70
2017-08-22T07:45:12.211Z,3.50
2017-08-22T07:47:41.329Z,2.60
2017-08-22T07:50:10.079Z,5.10
2017-08-22T07:52:39.249Z,3.00
2017-08-22T07:55:07.581Z,2.40
2017-08-22T07:57:38.052Z,2.90
2017-08-22T08:00:07.094Z,2.53
2017-08-22T08:02:35.508Z,2.80
2017-08-22T08:05:04.152Z,12.87
2017-08-22T08:07:32.505Z,3.07
2017-08-22T08:10:00.860Z,2.80
2017-08-22T08:12:29.525Z,2.20
2017-08-22T08:14:57.884Z,2.20
2017-08-22T08:17:27.000Z,2.80
2017-08-22T08:19:56.016Z,3.40
2017-08-22T08:22:24.389Z,3.30
2017-08-22T08:24:52.731Z,2.73
2017-08-22T08:27:21.644Z,3.67
2017-08-22T08:29:50.032Z,2.93
2017-08-22T08:32:18.482Z,3.10
2017-08-22T08:34:47.911Z,3.37
2017-08-22T08:37:16.266Z,3.00
2017-08-22T08:39:44.671Z,2.60
2017-08-22T08:42:13.746Z,3.13
2017-08-22T08:44:42.115Z,2.30
2017-08-22T08:47:11.368Z,2.23
2017-08-22T08:49:40.698Z,2.20
2017-08-22T08:52:09.070Z,2.20
2017-08-22T08:54:37.439Z,3.03
2017-08-22T08:57:06.176Z,1.87
2017-08-22T08:59:34.543Z,2.47
2017-08-22T09:02:02.906Z,1.73
2017-08-22T09:04:31.641Z,1.80
2017-08-22T09:07:00.035Z,2.07
2017-08-22T09:09:28.367Z,2.20
2017-08-22T09:11:57.901Z,2.20
2017-08-22T09:14:27.039Z,2.23
2017-08-22T09:16:55.445Z,2.33
2017-08-22T09:19:24.093Z,2.53
2017-08-22T09:21:52.454Z,2.33
2017-08-22T09:24:21.370Z,2.20
2017-08-22T09:26:50.738Z,2.07
2017-08-22T09:29:19.122Z,2.50
2017-08-22T09:31:47.499Z,2.40
2017-08-22T09:34:16.210Z,2.43
2017-08-22T09:36:44.580Z,2.40
2017-08-22T09:39:12.939Z,2.40
2017-08-22T09:41:42.474Z,2.63
2017-08-22T09:44:10.820Z,2.17
2017-08-22T09:46:39.158Z,2.37
2017-08-22T09:49:08.077Z,2.50
2017-08-22T09:51:36.492Z,2.43
2017-08-22T09:54:04.896Z,2.03
2017-08-22T09:56:33.848Z,2.83
2017-08-22T09:59:02.284Z,2.47
2017-08-22T10:01:30.651Z,3.77
2017-08-22T10:03:59.324Z,2.43
2017-08-22T10:06:27.708Z,2.47
2017-08-22T10:08:56.095Z,2.30
2017-08-22T10:11:24.895Z,2.97
2017-08-22T10:13:53.892Z,4.67
2017-08-22T10:16:22.241Z,3.00
2017-08-22T10:18:50.931Z,3.67
2017-08-22T10:21:19.406Z,2.40
2017-08-22T10:23:47.771Z,3.07
2017-08-22T10:26:16.442Z,2.90
2017-08-22T10:28:44.777Z,2.50
2017-08-22T10:31:13.126Z,3.37
2017-08-22T10:33:41.920Z,3.60
2017-08-22T10:36:10.309Z,4.30
2017-08-22T10:38:38.672Z,2.60
2017-08-22T10:41:07.453Z,2.50
2017-08-22T10:43:35.876Z,2.90
2017-08-22T10:46:04.244Z,4.43
2017-08-22T10:48:33.028Z,2.97
2017-08-22T10:51:01.369Z,2.57
2017-08-22T10:53:29.704Z,2.87
2017-08-22T10:55:58.513Z,2.00
2017-08-22T10:58:26.862Z,2.50
2017-08-22T11:00:55.204Z,1.90
2017-08-22T11:03:23.849Z,2.13
2017-08-22T11:05:52.957Z,2.37
2017-08-22T11:08:21.315Z,2.37
2017-08-22T11:10:51.051Z,2.13
2017-08-22T11:13:20.193Z,2.13
2017-08-22T11:15:48.542Z,2.00
2017-08-22T11:18:17.531Z,1.93
2017-08-22T11:20:45.890Z,2.07
2017-08-22T11:23:15.015Z,2.33
2017-08-22T11:25:43.635Z,2.00
2017-08-22T11:28:11.992Z,1.83
2017-08-22T11:30:40.325Z,2.30
2017-08-22T11:33:09.020Z,2.50
2017-08-22T11:35:37.389Z,2.40
2017-08-22T11:38:06.499Z,2.07
2017-08-22T11:40:35.230Z,1.90
2017-08-22T11:43:04.001Z,1.87
2017-08-22T11:45:32.370Z,1.77
2017-08-22T11:48:01.153Z,2.00
2017-08-22T11:50:29.483Z,1.67
2017-08-22T11:52:57.823Z,1.70
2017-08-22T11:55:26.588Z,2.10
2017-08-22T11:57:56.390Z,1.67
2017-08-22T12:00:26.342Z,1.83
2017-08-22T12:02:55.517Z,2.00
2017-08-22T12:05:23.884Z,2.13
2017-08-22T12:07:53.004Z,1.97
2017-08-22T12:10:22.589Z,2.00
2017-08-22T12:12:51.722Z,2.13
2017-08-22T12:15:20.068Z,1.70
2017-08-22T12:17:48.774Z,2.60
2017-08-22T12:20:17.126Z,2.00
2017-08-22T12:22:45.478Z,2.60
2017-08-22T12:25:14.761Z,2.17
2017-08-22T12:27:43.112Z,2.60
2017-08-22T12:30:11.462Z,2.40
2017-08-22T12:32:40.413Z,1.97
2017-08-22T12:35:08.823Z,2.07
2017-08-22T12:37:37.195Z,2.60
2017-08-22T12:40:06.052Z,2.13
2017-08-22T12:42:34.401Z,2.20
2017-08-22T12:45:03.518Z,2.40
2017-08-22T12:47:33.343Z,2.40
2017-08-22T12:50:01.707Z,2.63
2017-08-22T12:52:30.062Z,2.67
2017-08-22T12:54:59.460Z,2.50
2017-08-22T12:57:29.301Z,2.13
2017-08-22T12:59:57.650Z,2.60
2017-08-22T13:02:26.492Z,2.10
2017-08-22T13:04:54.892Z,2.50
2017-08-22T13:07:23.270Z,2.90
2017-08-22T13:09:52.119Z,2.67
2017-08-22T13:12:20.659Z,2.60
2017-08-22T13:14:48.995Z,2.40
2017-08-22T13:17:17.633Z,2.47
2017-08-22T13:19:46.769Z,2.90
2017-08-22T13:22:15.106Z,2.23
2017-08-22T13:24:44.847Z,2.20
2017-08-22T13:27:13.702Z,1.90
2017-08-22T13:29:42.026Z,2.43
2017-08-22T13:32:10.797Z,2.40
2017-08-22T13:34:39.143Z,2.30
2017-08-22T13:37:07.486Z,1.90
2017-08-22T13:39:36.395Z,1.90
2017-08-22T13:42:04.787Z,2.20
2017-08-22T13:44:33.317Z,2.10
2017-08-22T13:47:02.119Z,2.37
2017-08-22T13:49:30.473Z,2.30
2017-08-22T13:51:58.815Z,2.20
2017-08-22T13:54:27.997Z,2.00
2017-08-22T13:56:57.023Z,2.50
2017-08-22T13:59:25.366Z,1.70
2017-08-22T14:01:54.024Z,1.90
2017-08-22T14:04:22.385Z,1.90
2017-08-22T14:06:50.728Z,2.70
2017-08-22T14:09:19.371Z,2.00
2017-08-22T14:11:47.723Z,2.03
2017-08-22T14:14:16.196Z,2.50
2017-08-22T14:16:45.414Z,2.17
2017-08-22T14:19:13.761Z,1.90
2017-08-22T14:21:42.112Z,2.37
2017-08-22T14:24:10.771Z,2.80
2017-08-22T14:26:39.126Z,2.70
2017-08-22T14:29:08.012Z,2.57
2017-08-22T14:31:36.907Z,2.27
2017-08-22T14:34:05.259Z,2.00
2017-08-22T14:36:33.677Z,2.40
2017-08-22T14:39:02.554Z,2.03
2017-08-22T14:41:31.687Z,1.80
2017-08-22T14:44:00.051Z,2.37
2017-08-22T14:46:29.764Z,2.60
2017-08-22T14:48:58.871Z,2.27
2017-08-22T14:51:27.236Z,2.50
2017-08-22T14:53:56.977Z,2.80
2017-08-22T14:56:25.330Z,2.63
2017-08-22T14:58:54.370Z,2.27
2017-08-22T15:01:23.228Z,2.80
2017-08-22T15:03:51.585Z,2.23
2017-08-22T15:06:19.937Z,2.20
2017-08-22T15:08:48.635Z,2.30
2017-08-22T15:11:17.003Z,2.57
2017-08-22T15:13:45.348Z,3.03
2017-08-22T15:16:13.963Z,2.50
2017-08-22T15:18:43.838Z,3.03
2017-08-22T15:21:12.239Z,2.20
2017-08-22T15:23:41.416Z,2.20
2017-08-22T15:26:09.820Z,2.50
2017-08-22T15:28:38.184Z,2.73
2017-08-22T15:31:06.862Z,2.53
2017-08-22T15:33:35.221Z,2.90
2017-08-22T15:36:04.040Z,2.47
2017-08-22T15:38:32.771Z,2.27
2017-08-22T15:41:01.131Z,2.73
2017-08-22T15:43:29.503Z,2.70
2017-08-22T15:45:58.352Z,3.03
2017-08-22T15:48:26.728Z,2.70
2017-08-22T15:50:55.105Z,2.20
2017-08-22T15:53:24.002Z,2.77
2017-08-22T15:55:52.381Z,2.13
2017-08-22T15:58:20.980Z,2.77
2017-08-22T16:00:50.464Z,3.23
2017-08-22T16:03:18.862Z,11.53
2017-08-22T16:05:47.264Z,2.40
2017-08-22T16:08:16.349Z,2.77
2017-08-22T16:10:45.619Z,2.37
2017-08-22T16:13:14.672Z,2.30
2017-08-22T16:15:44.075Z,2.03
2017-08-22T16:18:13.111Z,2.50
2017-08-22T16:20:41.437Z,2.47
2017-08-22T16:23:10.277Z,2.37
2017-08-22T16:25:38.632Z,2.50
2017-08-22T16:28:07.750Z,1.97
2017-08-22T16:30:36.935Z,2.30
2017-08-22T16:33:05.287Z,2.40
2017-08-22T16:35:33.650Z,2.73
2017-08-22T16:38:02.402Z,2.43
2017-08-22T16:40:30.881Z,2.47
2017-08-22T16:42:59.307Z,2.63
2017-08-22T16:45:28.120Z,3.00
2017-08-22T16:47:56.490Z,2.50
2017-08-22T16:50:24.838Z,2.80
2017-08-22T16:52:53.642Z,2.30
2017-08-22T16:55:21.996Z,2.20
2017-08-22T16:57:50.331Z,1.97
2017-08-22T17:00:19.141Z,2.47
2017-08-22T17:02:47.509Z,2.33
2017-08-22T17:05:15.887Z,2.60
2017-08-22T17:07:44.638Z,2.20
2017-08-22T17:10:13.279Z,3.20
2017-08-22T17:12:41.658Z,3.20
2017-08-22T17:15:10.668Z,3.30
2017-08-22T17:17:39.015Z,2.37
2017-08-22T17:20:08.168Z,10.40
2017-08-22T17:22:36.938Z,1.93
2017-08-22T17:25:05.293Z,2.10
2017-08-22T17:27:33.686Z,2.70
2017-08-22T17:30:02.340Z,1.80
2017-08-22T17:32:31.564Z,2.27
2017-08-22T17:34:59.903Z,2.07
2017-08-22T17:37:28.835Z,2.70
2017-08-22T17:39:57.199Z,2.20
2017-08-22T17:42:25.538Z,2.30
2017-08-22T17:44:54.278Z,2.20
2017-08-22T17:47:22.617Z,1.70
2017-08-22T17:49:50.960Z,2.10
2017-08-22T17:52:19.617Z,2.50
2017-08-22T17:54:47.959Z,2.53
2017-08-22T17:57:16.331Z,2.47
2017-08-22T17:59:45.414Z,2.40
2017-08-22T18:02:13.774Z,2.07
2017-08-22T18:04:42.940Z,2.00
2017-08-22T18:07:12.363Z,2.30
2017-08-22T18:09:40.729Z,2.43
2017-08-22T18:12:09.085Z,2.47
2017-08-22T18:14:38.521Z,2.00
2017-08-22T18:17:06.850Z,2.57
2017-08-22T18:19:35.237Z,2.40
2017-08-22T18:22:04.243Z,2.17
2017-08-22T18:24:32.589Z,2.47
2017-08-22T18:27:00.964Z,2.30
2017-08-22T18:29:29.681Z,2.27
2017-08-22T18:31:58.159Z,2.00
2017-08-22T18:34:27.256Z,1.80
2017-08-22T18:36:56.908Z,2.03
2017-08-22T18:39:25.248Z,1.93
2017-08-22T18:41:54.339Z,2.10
2017-08-22T18:44:23.895Z,2.20
2017-08-22T18:46:53.149Z,2.43
2017-08-22T18:49:21.704Z,2.23
2017-08-22T18:51:50.457Z,1.80
2017-08-22T18:54:18.886Z,2.40
2017-08-22T18:56:47.261Z,2.20
2017-08-22T18:59:16.297Z,2.10
2017-08-22T19:01:44.680Z,2.20
2017-08-22T19:04:13.033Z,2.90
2017-08-22T19:06:41.848Z,2.40
2017-08-22T19:09:10.226Z,2.43
2017-08-22T19:11:39.494Z,2.17
2017-08-22T19:14:08.436Z,2.43
2017-08-22T19:16:36.805Z,2.30
2017-08-22T19:19:05.190Z,2.80
2017-08-22T19:21:34.020Z,2.40
2017-08-22T19:24:02.636Z,2.37
2017-08-22T19:26:32.182Z,2.47
2017-08-22T19:29:01.032Z,2.37
2017-08-22T19:31:30.154Z,2.70
2017-08-22T19:33:58.480Z,2.30
2017-08-22T19:36:27.090Z,2.30
2017-08-22T19:38:55.453Z,2.60
2017-08-22T19:41:23.796Z,2.50
2017-08-22T19:43:52.445Z,2.77
2017-08-22T19:46:20.794Z,3.53
2017-08-22T19:48:49.168Z,2.97
2017-08-22T19:51:18.175Z,3.10
2017-08-22T19:53:47.141Z,3.30
2017-08-22T19:56:15.485Z,4.00
2017-08-22T19:58:44.366Z,3.30
2017-08-22T20:01:12.725Z,2.83
2017-08-22T20:03:41.840Z,2.90
2017-08-22T20:06:11.263Z,2.67
2017-08-22T20:08:39.619Z,3.50
2017-08-22T20:11:07.951Z,3.10
2017-08-22T20:13:37.518Z,3.10
2017-08-22T20:16:05.889Z,3.20
2017-08-22T20:18:34.267Z,3.50
2017-08-22T20:21:02.963Z,3.10
2017-08-22T20:23:32.198Z,3.37
2017-08-22T20:26:01.359Z,2.60
2017-08-22T20:28:30.248Z,2.93
2017-08-22T20:30:58.593Z,3.80
2017-08-22T20:33:26.947Z,3.50
2017-08-22T20:35:56.105Z,3.33
2017-08-22T20:38:24.474Z,4.00
2017-08-22T20:40:52.813Z,3.80
2017-08-22T20:43:21.576Z,4.20
2017-08-22T20:45:49.919Z,4.20
2017-08-22T20:48:18.249Z,4.80
2017-08-22T20:50:47.007Z,5.10
2017-08-22T20:53:15.355Z,4.73
2017-08-22T20:55:43.728Z,5.40
2017-08-22T20:58:13.495Z,6.07
2017-08-22T21:00:42.629Z,5.67
2017-08-22T21:03:10.975Z,4.83
2017-08-22T21:05:39.720Z,4.67
2017-08-22T21:08:08.068Z,5.50
2017-08-22T21:10:36.435Z,5.27
2017-08-22T21:13:05.292Z,6.23
2017-08-22T21:15:34.374Z,5.70
2017-08-22T21:18:02.829Z,4.70
2017-08-22T21:20:31.645Z,5.20
2017-08-22T21:23:00.022Z,5.93
2017-08-22T21:25:28.418Z,5.30
2017-08-22T21:27:57.309Z,5.07
2017-08-22T21:30:25.638Z,5.20
2017-08-22T21:32:53.982Z,5.20
2017-08-22T21:35:22.752Z,5.13
2017-08-22T21:37:51.116Z,5.30
2017-08-22T21:40:19.461Z,5.10
2017-08-22T21:42:48.584Z,6.27
2017-08-22T21:45:16.931Z,4.53
2017-08-22T21:47:45.278Z,5.20
2017-08-22T21:50:14.235Z,5.77
2017-08-22T21:52:42.656Z,5.40
2017-08-22T21:55:11.006Z,6.47
2017-08-22T21:57:40.699Z,6.27
2017-08-22T22:00:10.591Z,5.23
2017-08-22T22:02:38.954Z,6.17
2017-08-22T22:05:07.784Z,5.23
2017-08-22T22:07:36.134Z,5.30
2017-08-22T22:10:05.195Z,4.47
2017-08-22T22:12:33.896Z,5.30
2017-08-22T22:15:02.271Z,5.50
2017-08-22T22:17:30.648Z,5.27
2017-08-22T22:20:00.733Z,5.40
2017-08-22T22:22:29.084Z,5.63
2017-08-22T22:24:58.213Z,5.57
2017-08-22T22:27:27.775Z,6.20
2017-08-22T22:29:56.139Z,5.73
2017-08-22T22:32:24.476Z,5.47
2017-08-22T22:34:53.236Z,5.13
2017-08-22T22:37:21.624Z,5.30
2017-08-22T22:39:49.977Z,5.13
2017-08-22T22:42:18.918Z,5.40
2017-08-22T22:44:47.963Z,5.20
2017-08-22T22:47:16.616Z,4.57
2017-08-22T22:49:45.594Z,4.80
2017-08-22T22:52:14.082Z,4.90
2017-08-22T22:54:42.434Z,4.87
2017-08-22T22:57:11.099Z,5.20
2017-08-22T22:59:39.457Z,5.00
2017-08-22T23:02:07.806Z,4.90
2017-08-22T23:04:36.700Z,5.10
2017-08-22T23:07:05.056Z,5.37
2017-08-22T23:09:33.423Z,4.60
2017-08-22T23:12:02.967Z,4.90
2017-08-22T23:14:31.365Z,4.93
2017-08-22T23:17:01.286Z,5.03
2017-08-22T23:19:29.969Z,5.13
2017-08-22T23:21:58.356Z,4.90
2017-08-22T23:24:26.726Z,4.67
2017-08-22T23:26:55.400Z,4.40
2017-08-22T23:29:23.760Z,4.93
2017-08-22T23:31:52.891Z,4.83
2017-08-22T23:34:21.836Z,5.10
2017-08-22T23:36:50.204Z,5.20
2017-08-22T23:39:18.584Z,4.80
2017-08-22T23:41:47.378Z,5.10
2017-08-22T23:44:15.727Z,5.13
2017-08-22T23:46:44.061Z,5.77
2017-08-22T23:49:12.805Z,4.60
2017-08-22T23:51:41.149Z,5.10
2017-08-22T23:54:09.499Z,5.20
2017-08-22T23:56:38.493Z,4.83
2017-08-22T23:59:06.872Z,4.80
